Time;durP1;ratioP1;P1;durP2;ratioP2;P2;SDS_P1;SDS_P2;PMS_P1;PMS_P2;Temp;Humidity;BMP_temperature;BMP_pressure;BME280_temperature;BME280_humidity;BME280_pressure;Samples;Min_cycle;Max_cycle;Signal;HPM_P1;HPM_P2
2021/12/12 00:01:31;;;;;;;7.87;6.53;;;10.30;56.90;;;;;;4962264;28;20502;-54
2021/12/12 00:04:09;;;;;;;14.13;6.60;;;10.20;57.30;;;;;;4964024;28;20607;-54
2021/12/12 00:06:39;;;;;;;10.97;7.17;;;10.30;57.20;;;;;;4967779;28;20448;-54
2021/12/12 00:09:25;;;;;;;11.47;6.70;;;10.20;57.20;;;;;;4964635;28;20881;-51
2021/12/12 00:11:51;;;;;;;7.57;6.60;;;10.30;57.30;;;;;;4962411;28;20443;-53
2021/12/12 00:14:24;;;;;;;10.50;5.60;;;10.30;57.10;;;;;;4962391;28;20443;-51
2021/12/12 00:16:51;;;;;;;9.73;6.37;;;10.30;57.00;;;;;;4970233;28;20442;-52
2021/12/12 00:19:18;;;;;;;7.23;6.53;;;10.30;56.90;;;;;;4965525;28;20445;-53
2021/12/12 00:21:48;;;;;;;8.27;5.70;;;10.30;56.90;;;;;;4964974;28;20439;-51
2021/12/12 00:24:14;;;;;;;14.27;6.90;;;10.30;56.90;;;;;;4966551;28;20439;-52
2021/12/12 00:26:42;;;;;;;6.63;5.83;;;10.30;57.20;;;;;;4965781;28;20494;-52
2021/12/12 00:29:10;;;;;;;10.97;6.97;;;10.20;57.60;;;;;;4964552;28;20447;-54
2021/12/12 00:31:36;;;;;;;9.37;6.30;;;10.20;57.00;;;;;;4967678;28;20785;-53
2021/12/12 00:34:02;;;;;;;10.53;6.83;;;10.20;57.00;;;;;;4972482;28;20543;-51
2021/12/12 00:36:29;;;;;;;6.70;5.67;;;10.20;56.90;;;;;;4973087;28;20274;-51
2021/12/12 00:39:00;;;;;;;7.47;6.70;;;10.30;56.80;;;;;;4965305;28;20477;-51
2021/12/12 00:41:37;;;;;;;12.20;6.80;;;10.30;56.70;;;;;;4967378;28;20486;-52
2021/12/12 00:44:05;;;;;;;9.10;5.30;;;10.30;56.70;;;;;;4965612;28;20458;-51
2021/12/12 00:46:31;;;;;;;7.67;6.50;;;10.30;56.60;;;;;;4966183;28;20466;-53
2021/12/12 00:48:57;;;;;;;10.17;6.37;;;10.30;56.70;;;;;;4963590;28;20450;-53
2021/12/12 00:51:29;;;;;;;18.10;6.47;;;10.30;56.70;;;;;;4964299;28;20206;-52
2021/12/12 00:53:55;;;;;;;7.43;6.53;;;10.30;56.50;;;;;;4964683;28;20822;-51
2021/12/12 00:56:21;;;;;;;15.33;6.50;;;10.30;56.60;;;;;;4963724;28;20949;-52
2021/12/12 00:58:47;;;;;;;11.60;6.00;;;10.30;56.50;;;;;;4965172;28;20447;-51
2021/12/12 01:01:24;;;;;;;6.63;5.23;;;10.30;56.40;;;;;;4967425;28;20505;-51
2021/12/12 01:03:55;;;;;;;8.37;5.53;;;10.20;56.20;;;;;;4959849;28;20199;-51
2021/12/12 01:06:23;;;;;;;7.77;5.63;;;10.20;56.00;;;;;;4969180;28;20447;-51
2021/12/12 01:08:50;;;;;;;8.20;5.50;;;10.20;55.80;;;;;;4962880;28;20451;-51
2021/12/12 01:11:21;;;;;;;8.80;5.87;;;10.20;55.90;;;;;;4963447;28;20446;-50
2021/12/12 01:13:48;;;;;;;8.53;5.50;;;10.20;56.00;;;;;;4965625;28;20447;-51
2021/12/12 01:16:24;;;;;;;8.13;5.70;;;10.20;56.00;;;;;;4969727;28;20455;-51
2021/12/12 01:18:59;;;;;;;11.90;4.87;;;10.20;55.80;;;;;;4971410;28;20451;-51
2021/12/12 01:21:40;;;;;;;6.77;5.70;;;10.30;55.60;;;;;;4965675;28;20863;-50
2021/12/12 01:24:10;;;;;;;9.60;5.00;;;10.30;55.50;;;;;;4964881;28;21701;-50
2021/12/12 01:26:38;;;;;;;11.20;5.73;;;10.30;55.50;;;;;;4961120;28;20821;-51
2021/12/12 01:29:05;;;;;;;9.00;5.50;;;10.30;55.30;;;;;;4964802;28;20581;-51
2021/12/12 01:31:36;;;;;;;5.20;4.43;;;10.30;55.30;;;;;;4970234;28;20446;-51
2021/12/12 01:34:11;;;;;;;9.00;5.63;;;10.30;55.20;;;;;;4963387;28;20447;-51
2021/12/12 01:36:53;;;;;;;11.90;5.80;;;10.30;55.10;;;;;;4969068;28;20774;-50
2021/12/12 01:39:22;;;;;;;7.27;5.40;;;10.30;55.00;;;;;;4963669;28;20962;-51
2021/12/12 01:42:02;;;;;;;9.50;5.97;;;10.30;55.00;;;;;;4959561;28;21560;-51
2021/12/12 01:44:37;;;;;;;8.60;5.50;;;10.30;54.90;;;;;;4964888;28;20796;-51
2021/12/12 01:47:16;;;;;;;8.63;5.20;;;10.20;54.80;;;;;;4966870;28;20486;-51
2021/12/12 01:49:45;;;;;;;10.53;5.30;;;10.30;55.00;;;;;;4965829;28;20542;-52
2021/12/12 01:52:15;;;;;;;9.73;5.30;;;10.30;54.70;;;;;;4967182;28;20455;-51
2021/12/12 01:54:45;;;;;;;7.23;5.73;;;10.20;54.60;;;;;;4964139;28;20475;-52
2021/12/12 01:57:22;;;;;;;9.57;6.67;;;10.20;54.60;;;;;;4971138;28;20982;-54
2021/12/12 01:59:50;;;;;;;7.63;6.33;;;10.30;54.60;;;;;;4967341;28;20911;-52
2021/12/12 02:02:21;;;;;;;9.30;8.00;;;10.30;54.80;;;;;;4965996;28;20444;-51
2021/12/12 02:04:52;;;;;;;9.57;7.53;;;10.30;55.30;;;;;;4969489;28;20474;-51
2021/12/12 02:07:24;;;;;;;8.43;6.43;;;10.30;55.50;;;;;;4966407;28;20434;-51
2021/12/12 02:09:51;;;;;;;11.50;7.00;;;10.30;55.80;;;;;;4966648;28;20868;-52
2021/12/12 02:12:20;;;;;;;8.70;6.97;;;10.30;55.80;;;;;;4969978;28;20446;-51
2021/12/12 02:14:46;;;;;;;13.53;7.40;;;10.30;55.80;;;;;;4971751;28;20474;-50
2021/12/12 02:17:21;;;;;;;9.70;7.17;;;10.40;55.80;;;;;;4967537;28;20434;-50
2021/12/12 02:36:29;;;;;;;5.97;5.37;;;10.30;56.20;;;;;;4964160;28;20594;-51
2021/12/12 02:38:55;;;;;;;6.77;5.60;;;10.20;56.30;;;;;;4968494;28;20451;-51
2021/12/12 02:41:24;;;;;;;8.00;5.70;;;10.20;56.00;;;;;;4973775;28;20910;-51
2021/12/12 02:43:56;;;;;;;7.20;4.77;;;10.20;55.80;;;;;;4970808;28;20803;-51
2021/12/12 02:46:29;;;;;;;6.03;4.47;;;10.10;55.10;;;;;;4965075;28;20438;-55
2021/12/12 02:49:05;;;;;;;6.33;4.00;;;10.10;54.50;;;;;;4964175;28;20449;-55
2021/12/12 02:51:31;;;;;;;6.27;5.40;;;10.20;54.50;;;;;;4966799;28;20442;-51
2021/12/12 02:53:59;;;;;;;10.77;5.90;;;10.20;54.20;;;;;;4967632;28;20478;-51
2021/12/12 02:56:30;;;;;;;7.57;5.27;;;10.30;54.60;;;;;;4966061;28;20451;-51
2021/12/12 02:58:56;;;;;;;7.43;6.23;;;10.30;54.50;;;;;;4965015;28;20470;-54
2021/12/12 03:01:40;;;;;;;5.83;5.20;;;10.30;54.50;;;;;;4966705;28;21337;-54
2021/12/12 03:04:07;;;;;;;7.60;4.93;;;10.30;54.30;;;;;;4967024;28;20470;-55
2021/12/12 03:06:36;;;;;;;5.73;5.27;;;10.30;54.10;;;;;;4964588;28;20457;-53
2021/12/12 03:09:28;;;;;;;8.13;5.90;;;10.30;54.20;;;;;;4958428;28;20439;-51
2021/12/12 03:12:02;;;;;;;8.70;6.57;;;10.30;54.30;;;;;;4968231;28;20454;-51
2021/12/12 03:14:32;;;;;;;11.93;7.13;;;10.40;54.80;;;;;;4969373;28;20529;-52
2021/12/12 03:17:07;;;;;;;7.90;6.70;;;10.30;55.20;;;;;;4968572;28;20501;-51
2021/12/12 03:19:33;;;;;;;8.53;7.60;;;10.30;55.70;;;;;;4965294;28;20820;-51
2021/12/12 03:21:59;;;;;;;8.20;7.40;;;10.30;56.00;;;;;;4973939;28;20439;-52
2021/12/12 03:24:27;;;;;;;7.60;6.60;;;10.30;56.10;;;;;;4959725;28;20454;-55
2021/12/12 03:26:57;;;;;;;7.83;6.57;;;10.40;56.30;;;;;;4965298;28;20330;-51
2021/12/12 03:29:25;;;;;;;9.83;7.30;;;10.30;56.40;;;;;;4969223;28;20459;-51
2021/12/12 03:31:59;;;;;;;8.30;6.63;;;10.30;56.50;;;;;;4972492;28;20923;-51
2021/12/12 03:34:29;;;;;;;8.23;7.43;;;10.30;56.70;;;;;;4968904;28;20430;-51
2021/12/12 03:36:55;;;;;;;8.23;7.43;;;10.30;56.90;;;;;;4968640;28;20443;-51
2021/12/12 03:39:31;;;;;;;10.60;7.60;;;10.30;57.00;;;;;;4968042;28;20455;-52
2021/12/12 03:41:59;;;;;;;8.57;7.73;;;10.30;57.00;;;;;;4971526;28;20450;-51
2021/12/12 03:44:28;;;;;;;8.17;7.27;;;10.30;57.20;;;;;;4961770;28;20450;-52
2021/12/12 03:46:57;;;;;;;10.63;7.60;;;10.20;57.20;;;;;;4966033;28;20453;-51
2021/12/12 03:49:24;;;;;;;13.13;7.50;;;10.20;57.40;;;;;;4967044;28;20569;-52
2021/12/12 03:51:54;;;;;;;9.67;7.10;;;10.20;57.40;;;;;;4970688;28;20488;-54
2021/12/12 03:54:20;;;;;;;11.53;7.80;;;10.20;57.30;;;;;;4968376;28;20474;-52
2021/12/12 03:56:46;;;;;;;10.20;7.30;;;10.30;57.40;;;;;;4971466;28;20446;-51
2021/12/12 03:59:13;;;;;;;8.60;6.87;;;10.30;57.40;;;;;;4962060;28;20457;-51
2021/12/12 04:01:57;;;;;;;9.30;6.70;;;10.30;57.20;;;;;;4965045;28;20505;-52
2021/12/12 04:04:34;;;;;;;10.33;6.83;;;10.20;56.90;;;;;;4964146;28;20458;-53
2021/12/12 04:07:02;;;;;;;10.60;6.30;;;10.20;56.90;;;;;;4964778;28;20801;-51
2021/12/12 04:09:28;;;;;;;8.53;6.67;;;10.20;56.70;;;;;;4966053;28;20461;-51
2021/12/12 04:11:59;;;;;;;6.73;6.03;;;10.20;56.80;;;;;;4964222;28;20862;-50
2021/12/12 04:14:25;;;;;;;7.53;5.70;;;10.20;56.50;;;;;;4960136;28;20526;-53
2021/12/12 04:16:56;;;;;;;10.60;6.40;;;10.20;56.30;;;;;;4968257;28;20443;-50
2021/12/12 04:19:22;;;;;;;9.27;6.20;;;10.10;56.10;;;;;;4966450;28;20934;-51
2021/12/12 04:21:48;;;;;;;7.40;5.80;;;10.10;56.10;;;;;;4969191;28;20434;-51
2021/12/12 04:24:42;;;;;;;7.77;6.60;;;10.10;56.10;;;;;;4971511;28;20957;-52
2021/12/12 04:27:08;;;;;;;5.87;5.27;;;10.10;56.00;;;;;;4960459;28;20208;-51
2021/12/12 04:29:37;;;;;;;7.00;6.00;;;10.10;55.90;;;;;;4967186;28;20834;-51
2021/12/12 04:32:07;;;;;;;7.50;6.47;;;10.00;55.80;;;;;;4965343;28;21214;-51
2021/12/12 04:34:42;;;;;;;11.70;5.77;;;10.00;55.80;;;;;;4958909;28;21032;-50
2021/12/12 04:37:09;;;;;;;7.03;5.60;;;9.90;56.40;;;;;;4963526;28;20438;-51
2021/12/12 04:39:38;;;;;;;6.67;5.37;;;10.00;55.70;;;;;;4964377;28;20726;-51
2021/12/12 04:42:13;;;;;;;7.57;6.43;;;9.80;56.50;;;;;;4967500;28;20795;-50
2021/12/12 04:44:42;;;;;;;7.60;6.67;;;9.80;56.80;;;;;;4970401;28;20501;-50
2021/12/12 04:50:25;;;;;;;7.97;6.90;;;9.70;57.10;;;;;;4963420;28;20607;-50
2021/12/12 04:53:23;;;;;;;10.93;6.60;;;9.70;57.20;;;;;;4966159;28;20447;-51
2021/12/12 04:55:54;;;;;;;12.00;7.70;;;9.70;57.30;;;;;;4959858;28;20460;-51
2021/12/12 04:58:30;;;;;;;12.13;8.03;;;9.70;57.50;;;;;;4961379;28;20455;-51
2021/12/12 05:01:06;;;;;;;10.70;7.37;;;9.60;57.80;;;;;;4963500;28;20521;-51
2021/12/12 05:03:41;;;;;;;8.33;7.40;;;9.60;58.00;;;;;;4966149;28;20575;-50
2021/12/12 05:06:12;;;;;;;7.23;6.17;;;9.60;57.90;;;;;;4960266;28;20876;-51
2021/12/12 05:08:55;;;;;;;8.60;6.23;;;9.60;57.60;;;;;;4964240;28;20450;-50
2021/12/12 05:11:28;;;;;;;8.87;7.73;;;9.60;57.70;;;;;;4963516;28;20868;-50
2021/12/12 05:13:59;;;;;;;8.10;6.20;;;9.50;57.80;;;;;;4962073;28;20490;-50
2021/12/12 05:16:29;;;;;;;9.43;6.23;;;9.50;57.80;;;;;;4966904;28;20458;-50
2021/12/12 05:19:05;;;;;;;7.43;6.60;;;9.50;57.80;;;;;;4966214;28;21264;-50
2021/12/12 05:21:36;;;;;;;8.43;6.40;;;9.50;57.80;;;;;;4962856;28;20914;-52
2021/12/12 05:24:05;;;;;;;8.57;6.10;;;9.50;57.80;;;;;;4965881;28;20471;-51
2021/12/12 05:26:39;;;;;;;9.60;6.13;;;9.50;57.50;;;;;;4962049;28;20462;-53
2021/12/12 05:29:10;;;;;;;6.60;5.87;;;9.50;57.40;;;;;;4962645;28;20537;-50
2021/12/12 05:31:36;;;;;;;13.00;8.03;;;9.50;57.00;;;;;;4963205;28;20454;-51
2021/12/12 05:34:04;;;;;;;16.73;8.80;;;9.50;56.40;;;;;;4961597;28;20715;-53
2021/12/12 05:36:33;;;;;;;9.90;7.00;;;9.50;56.20;;;;;;4960229;28;20448;-56
2021/12/12 05:39:01;;;;;;;10.10;6.70;;;9.40;55.50;;;;;;4963642;28;21062;-55
2021/12/12 05:41:27;;;;;;;12.53;6.67;;;9.40;55.50;;;;;;4961216;28;20498;-52
2021/12/12 05:43:55;;;;;;;8.37;5.23;;;9.40;55.40;;;;;;4967841;28;20435;-54
2021/12/12 05:46:23;;;;;;;5.37;4.60;;;9.40;55.10;;;;;;4964044;28;20513;-54
2021/12/12 05:48:50;;;;;;;11.43;5.23;;;9.50;54.80;;;;;;4960270;28;20463;-54
2021/12/12 05:51:17;;;;;;;7.13;5.50;;;9.50;54.80;;;;;;4966152;28;20461;-54
2021/12/12 05:53:43;;;;;;;6.97;4.80;;;9.50;54.70;;;;;;4972083;28;20528;-51
2021/12/12 05:56:09;;;;;;;5.40;4.20;;;9.50;54.90;;;;;;4965892;28;20435;-53
2021/12/12 05:58:36;;;;;;;5.77;4.20;;;9.40;54.70;;;;;;4970160;28;20466;-53
2021/12/12 06:01:08;;;;;;;4.13;3.70;;;9.40;54.20;;;;;;4969952;28;21004;-50
2021/12/12 06:03:40;;;;;;;5.17;3.97;;;9.30;54.30;;;;;;4966024;28;20534;-54
2021/12/12 06:06:11;;;;;;;4.27;3.50;;;9.30;54.30;;;;;;4964757;28;20446;-54
2021/12/12 06:08:39;;;;;;;5.00;3.90;;;8.60;53.80;;;;;;4964624;28;20499;-50
2021/12/12 06:11:05;;;;;;;8.03;4.43;;;8.60;54.70;;;;;;4960994;28;20447;-54
2021/12/12 06:13:31;;;;;;;5.03;3.57;;;8.80;54.80;;;;;;4962360;28;20451;-53
2021/12/12 06:15:59;;;;;;;4.00;3.43;;;8.80;54.40;;;;;;4962542;28;20455;-55
2021/12/12 06:18:28;;;;;;;7.37;4.27;;;8.90;54.30;;;;;;4962409;28;20508;-54
2021/12/12 06:20:54;;;;;;;6.10;4.13;;;8.80;54.40;;;;;;4964657;28;20510;-51
2021/12/12 06:23:21;;;;;;;6.27;3.80;;;8.80;54.50;;;;;;4964242;28;20455;-54
2021/12/12 06:25:48;;;;;;;5.90;4.50;;;8.90;54.90;;;;;;4962022;28;20529;-54
2021/12/12 06:28:32;;;;;;;7.60;4.97;;;8.90;54.30;;;;;;4962103;28;20446;-55
2021/12/12 06:30:59;;;;;;;4.90;4.13;;;8.90;54.30;;;;;;4960571;28;21616;-52
2021/12/12 06:33:25;;;;;;;7.53;5.50;;;8.90;54.20;;;;;;4962810;28;20450;-55
2021/12/12 06:35:52;;;;;;;9.57;4.50;;;8.90;54.20;;;;;;4961303;28;20585;-53
2021/12/12 06:38:20;;;;;;;4.73;4.33;;;9.10;55.90;;;;;;4962604;28;20561;-51
2021/12/12 06:40:46;;;;;;;6.03;5.43;;;9.30;56.80;;;;;;4970707;28;20497;-54
2021/12/12 06:43:14;;;;;;;5.30;4.83;;;9.50;57.10;;;;;;4965710;28;20446;-53
2021/12/12 06:45:40;;;;;;;6.30;4.67;;;9.70;56.80;;;;;;4964133;28;21251;-51
2021/12/12 06:48:09;;;;;;;5.00;4.50;;;9.90;56.40;;;;;;4967757;28;20443;-50
2021/12/12 06:50:37;;;;;;;6.30;4.70;;;10.10;54.90;;;;;;4963359;28;20236;-51
2021/12/12 06:53:04;;;;;;;7.60;6.23;;;10.30;53.90;;;;;;4974164;28;20442;-51
2021/12/12 06:55:30;;;;;;;16.97;14.30;;;10.40;53.10;;;;;;4967886;28;20487;-50
2021/12/12 06:57:56;;;;;;;8.17;6.33;;;10.40;51.90;;;;;;4974612;28;20442;-51
2021/12/12 07:00:24;;;;;;;6.37;5.77;;;10.40;51.90;;;;;;4964879;28;20498;-50
2021/12/12 07:02:51;;;;;;;6.30;4.80;;;10.30;51.40;;;;;;4970624;28;20206;-53
2021/12/12 07:05:23;;;;;;;6.07;3.83;;;10.30;51.80;;;;;;4966143;28;20876;-50
2021/12/12 07:07:51;;;;;;;5.03;4.60;;;10.40;51.40;;;;;;4965479;28;20431;-50
2021/12/12 07:10:20;;;;;;;6.93;5.37;;;10.40;51.10;;;;;;4961420;28;20774;-52
2021/12/12 07:12:53;;;;;;;8.07;5.40;;;10.60;51.20;;;;;;4967290;28;20514;-54
2021/12/12 07:15:19;;;;;;;6.30;4.60;;;10.60;50.50;;;;;;4961390;28;20443;-50
2021/12/12 07:17:45;;;;;;;6.27;4.90;;;10.70;50.40;;;;;;4966381;28;20444;-49
2021/12/12 07:20:12;;;;;;;5.23;4.63;;;10.60;50.10;;;;;;4962994;28;20235;-50
2021/12/12 07:22:38;;;;;;;6.87;5.23;;;10.60;50.80;;;;;;4971772;28;20445;-53
2021/12/12 07:25:07;;;;;;;5.87;5.27;;;10.80;50.30;;;;;;4970099;28;20444;-50
2021/12/12 07:27:33;;;;;;;6.00;5.40;;;11.20;49.90;;;;;;4966115;28;20435;-50
2021/12/12 07:29:59;;;;;;;5.40;4.90;;;12.00;48.70;;;;;;4971628;28;20457;-50
2021/12/12 07:32:28;;;;;;;7.17;5.30;;;12.70;46.40;;;;;;4970524;28;20246;-52
2021/12/12 07:34:54;;;;;;;4.80;4.40;;;13.40;45.50;;;;;;4965438;28;20816;-51
2021/12/12 07:37:21;;;;;;;6.00;4.70;;;14.10;43.80;;;;;;4970029;28;20542;-49
2021/12/12 07:39:48;;;;;;;5.10;4.60;;;14.60;41.50;;;;;;4964690;28;20440;-50
2021/12/12 07:42:16;;;;;;;4.10;3.70;;;15.00;40.30;;;;;;4960385;28;20448;-49
2021/12/12 07:44:43;;;;;;;4.50;4.10;;;15.20;39.80;;;;;;4963503;28;20481;-49
2021/12/12 07:47:11;;;;;;;4.80;4.13;;;15.60;39.70;;;;;;4966965;28;20446;-49
2021/12/12 07:49:44;;;;;;;5.70;5.20;;;16.10;38.90;;;;;;4962600;28;20442;-49
2021/12/12 07:52:14;;;;;;;5.97;5.47;;;16.00;38.50;;;;;;4969485;28;20450;-50
2021/12/12 07:54:40;;;;;;;7.30;5.73;;;15.50;39.00;;;;;;4973695;28;20481;-51
2021/12/12 07:57:06;;;;;;;7.47;6.70;;;14.60;40.20;;;;;;4965313;28;20435;-48
2021/12/12 07:59:35;;;;;;;7.80;6.00;;;13.60;42.00;;;;;;4962077;28;20207;-50
2021/12/12 08:02:02;;;;;;;9.73;5.70;;;12.90;44.00;;;;;;4966393;28;20500;-50
2021/12/12 08:04:30;;;;;;;6.77;5.30;;;12.20;45.00;;;;;;4964924;28;20478;-50
2021/12/12 08:06:57;;;;;;;6.73;4.70;;;11.50;46.70;;;;;;4974134;28;21001;-50
2021/12/12 08:09:25;;;;;;;5.70;4.97;;;10.90;48.50;;;;;;4955744;28;20522;-51
2021/12/12 08:11:51;;;;;;;8.03;4.50;;;10.60;49.30;;;;;;4966743;28;20438;-52
2021/12/12 08:14:20;;;;;;;4.80;4.40;;;10.00;50.70;;;;;;4973813;28;20430;-50
2021/12/12 08:16:48;;;;;;;5.67;4.73;;;9.80;52.10;;;;;;4974293;28;20431;-51
2021/12/12 08:19:16;;;;;;;4.07;3.50;;;9.40;52.60;;;;;;4972161;28;20850;-50
2021/12/12 08:21:41;;;;;;;4.73;3.77;;;9.30;53.50;;;;;;4973505;28;20483;-50
2021/12/12 08:24:10;;;;;;;5.00;4.23;;;9.20;54.10;;;;;;4967741;28;20439;-50
2021/12/12 08:26:39;;;;;;;5.37;4.33;;;9.00;54.50;;;;;;4954189;28;20199;-52
2021/12/12 08:29:07;;;;;;;7.57;4.93;;;8.90;54.20;;;;;;4954504;28;20510;-50
2021/12/12 08:31:34;;;;;;;5.37;4.83;;;8.60;55.20;;;;;;4956017;28;20420;-51
2021/12/12 08:34:01;;;;;;;5.80;4.90;;;8.60;55.60;;;;;;4973293;28;20445;-51
2021/12/12 08:36:27;;;;;;;6.33;4.77;;;8.30;56.00;;;;;;4954743;28;20793;-51
2021/12/12 08:38:53;;;;;;;5.33;4.83;;;8.10;57.10;;;;;;4954198;28;20435;-51
2021/12/12 08:41:19;;;;;;;4.97;4.47;;;8.10;57.00;;;;;;4953615;28;20705;-50
2021/12/12 08:43:46;;;;;;;5.33;4.27;;;7.80;57.20;;;;;;4957470;28;20223;-52
2021/12/12 08:46:15;;;;;;;6.07;4.73;;;7.80;57.50;;;;;;4953074;28;20831;-52
2021/12/12 08:48:46;;;;;;;5.50;4.43;;;7.90;57.60;;;;;;4953993;28;20438;-50
2021/12/12 08:51:17;;;;;;;5.10;4.03;;;8.00;57.70;;;;;;4955198;28;20436;-50
2021/12/12 08:53:46;;;;;;;5.97;4.67;;;8.10;56.90;;;;;;4962185;28;20471;-52
2021/12/12 08:56:19;;;;;;;4.57;4.17;;;8.30;56.80;;;;;;4963675;28;20522;-51
2021/12/12 08:58:47;;;;;;;5.10;4.53;;;8.30;56.40;;;;;;4953534;28;20434;-55
2021/12/12 09:01:16;;;;;;;6.30;4.90;;;8.30;57.50;;;;;;4952351;28;20518;-54
2021/12/12 09:04:02;;;;;;;5.80;4.93;;;8.50;57.00;;;;;;4960641;28;21681;-54
2021/12/12 09:06:33;;;;;;;3.97;3.53;;;8.30;56.50;;;;;;4969687;28;20454;-52
2021/12/12 09:09:10;;;;;;;3.83;3.43;;;8.60;56.50;;;;;;4967986;28;20911;-53
2021/12/12 09:11:44;;;;;;;3.80;3.50;;;8.60;55.20;;;;;;4970989;28;20426;-52
2021/12/12 09:14:31;;;;;;;4.30;3.37;;;8.80;54.90;;;;;;4973353;28;20477;-52
2021/12/12 09:17:07;;;;;;;4.70;3.10;;;8.90;54.40;;;;;;4968932;28;20438;-53
2021/12/12 09:20:10;;;;;;;4.77;3.77;;;9.10;54.10;;;;;;4969509;28;20850;-53
2021/12/12 09:22:45;;;;;;;4.33;3.93;;;9.30;53.80;;;;;;4954624;28;20464;-53
2021/12/12 09:25:14;;;;;;;3.83;3.30;;;9.30;53.50;;;;;;4966143;28;20482;-51
2021/12/12 09:27:52;;;;;;;5.37;4.10;;;9.30;53.40;;;;;;4961306;28;20444;-52
2021/12/12 09:30:24;;;;;;;3.70;3.40;;;9.30;53.40;;;;;;4970538;28;20946;-52
2021/12/12 09:33:00;;;;;;;3.57;3.27;;;9.40;53.60;;;;;;4965015;28;20455;-52
2021/12/12 09:35:34;;;;;;;4.77;3.47;;;9.40;53.60;;;;;;4969191;28;20446;-51
2021/12/12 09:38:25;;;;;;;3.97;3.67;;;9.60;53.10;;;;;;4969876;28;20494;-53
2021/12/12 09:41:08;;;;;;;4.07;3.20;;;9.50;53.00;;;;;;4958338;28;20495;-50
2021/12/12 09:43:55;;;;;;;4.13;3.73;;;9.60;53.00;;;;;;4964887;28;20506;-52
2021/12/12 09:46:45;;;;;;;3.77;3.37;;;9.70;52.90;;;;;;4959757;28;20443;-53
2021/12/12 09:52:41;;;;;;;3.73;3.43;;;9.70;52.60;;;;;;4966254;28;20465;-49
2021/12/12 09:55:21;;;;;;;4.93;3.50;;;9.70;52.30;;;;;;4962274;28;20470;-50
2021/12/12 09:57:52;;;;;;;3.97;3.63;;;9.80;52.10;;;;;;4969422;28;20996;-49
2021/12/12 10:00:36;;;;;;;3.27;2.80;;;9.70;51.90;;;;;;4963136;28;20495;-49
2021/12/12 10:03:20;;;;;;;3.17;2.97;;;9.90;53.00;;;;;;4965202;28;20476;-49
2021/12/12 10:05:57;;;;;;;3.83;3.47;;;10.10;51.00;;;;;;4964159;28;20856;-53
2021/12/12 10:08:34;;;;;;;4.37;3.70;;;10.20;51.10;;;;;;4958472;28;20537;-50
2021/12/12 10:11:17;;;;;;;4.03;3.63;;;10.10;50.50;;;;;;4968652;28;20449;-52
2021/12/12 10:13:47;;;;;;;4.10;3.30;;;10.00;50.90;;;;;;4957555;28;20954;-52
2021/12/12 10:16:38;;;;;;;3.30;3.10;;;10.00;50.60;;;;;;4967130;28;20525;-52
2021/12/12 10:19:24;;;;;;;3.80;3.10;;;10.10;50.90;;;;;;4972491;28;20453;-52
2021/12/12 10:22:01;;;;;;;3.40;3.10;;;10.20;50.70;;;;;;4953107;28;20624;-51
2021/12/12 10:24:37;;;;;;;4.37;3.40;;;10.30;50.60;;;;;;4966404;28;20578;-49
2021/12/12 10:27:48;;;;;;;3.40;3.10;;;10.40;50.60;;;;;;4967767;28;20477;-48
2021/12/12 10:30:55;;;;;;;3.23;2.90;;;10.50;50.00;;;;;;4946069;28;20463;-50
2021/12/12 10:33:40;;;;;;;3.43;3.10;;;10.30;50.10;;;;;;4935096;28;20446;-50
2021/12/12 10:36:17;;;;;;;5.83;3.07;;;10.30;50.20;;;;;;4958211;28;20454;-49
2021/12/12 10:39:02;;;;;;;3.77;2.63;;;10.30;50.00;;;;;;4965281;28;20492;-49
2021/12/12 10:41:31;;;;;;;6.50;3.53;;;10.40;50.10;;;;;;4961251;28;21255;-49
2021/12/12 10:44:05;;;;;;;5.93;3.07;;;10.30;50.70;;;;;;4972628;28;20439;-49
2021/12/12 10:46:36;;;;;;;3.13;2.80;;;10.40;50.10;;;;;;4971937;28;20473;-50
2021/12/12 10:49:17;;;;;;;4.30;3.20;;;10.50;50.00;;;;;;4968478;28;20438;-49
2021/12/12 10:51:57;;;;;;;6.60;3.30;;;10.40;49.60;;;;;;4969781;28;20593;-49
2021/12/12 10:54:30;;;;;;;7.07;3.63;;;10.20;50.40;;;;;;4965300;28;20990;-50
2021/12/12 10:57:13;;;;;;;3.43;3.00;;;10.20;50.70;;;;;;4967453;28;20442;-49
2021/12/12 10:59:52;;;;;;;3.70;3.00;;;10.30;50.60;;;;;;4971858;28;20442;-49
2021/12/12 11:02:24;;;;;;;3.73;3.33;;;10.30;50.40;;;;;;4968723;28;20446;-48
2021/12/12 11:05:01;;;;;;;3.40;3.00;;;10.50;50.20;;;;;;4972885;28;20450;-49
2021/12/12 11:07:39;;;;;;;3.03;2.73;;;10.50;50.50;;;;;;4964314;28;20492;-51
2021/12/12 11:10:26;;;;;;;3.50;3.20;;;10.50;50.20;;;;;;4968826;28;20531;-49
2021/12/12 11:12:57;;;;;;;3.60;3.20;;;10.60;49.90;;;;;;4969443;28;20959;-49
2021/12/12 11:15:29;;;;;;;3.10;2.80;;;10.70;49.80;;;;;;4968287;28;20950;-49
2021/12/12 11:17:55;;;;;;;2.80;2.60;;;10.90;49.60;;;;;;4971538;28;20939;-49
2021/12/12 11:20:35;;;;;;;3.10;2.70;;;10.90;49.60;;;;;;4960854;28;20486;-49
2021/12/12 11:23:18;;;;;;;3.53;3.23;;;10.90;49.50;;;;;;4964112;28;20202;-49
2021/12/12 11:25:57;;;;;;;5.17;2.63;;;11.00;49.30;;;;;;4960936;28;20486;-49
2021/12/12 11:28:43;;;;;;;2.73;2.30;;;11.10;49.60;;;;;;4971844;28;20439;-49
2021/12/12 11:31:26;;;;;;;3.40;2.60;;;11.20;48.90;;;;;;4958053;28;20475;-49
2021/12/12 11:33:53;;;;;;;3.73;2.87;;;11.20;48.60;;;;;;4967571;28;20481;-49
2021/12/12 11:36:25;;;;;;;5.53;3.30;;;11.20;48.50;;;;;;4967733;28;20497;-49
2021/12/12 11:39:13;;;;;;;3.00;2.70;;;11.30;48.90;;;;;;4965542;28;20974;-49
2021/12/12 11:41:57;;;;;;;3.40;2.83;;;11.40;49.10;;;;;;4965468;28;20497;-50
2021/12/12 11:44:30;;;;;;;4.30;3.03;;;11.30;48.70;;;;;;4962426;28;20837;-50
2021/12/12 11:47:08;;;;;;;4.67;2.80;;;10.90;48.80;;;;;;4964840;28;20437;-51
2021/12/12 11:49:57;;;;;;;2.83;2.60;;;10.80;49.50;;;;;;4965466;28;20454;-49
2021/12/12 11:52:55;;;;;;;5.10;2.60;;;10.80;49.60;;;;;;4974250;28;20439;-49
2021/12/12 11:55:41;;;;;;;1.80;1.70;;;11.00;49.10;;;;;;4966056;28;20526;-49
2021/12/12 11:58:36;;;;;;;3.77;2.53;;;11.10;49.10;;;;;;4969914;28;20571;-50
2021/12/12 12:01:10;;;;;;;3.73;2.57;;;10.90;48.40;;;;;;4961146;28;20984;-50
2021/12/12 12:04:11;;;;;;;4.80;3.27;;;10.80;49.10;;;;;;4971005;28;20819;-52
2021/12/12 12:07:14;;;;;;;4.57;3.47;;;10.90;49.50;;;;;;4964241;28;20458;-49
2021/12/12 12:10:09;;;;;;;2.80;2.60;;;11.00;48.80;;;;;;4972561;28;20470;-49
2021/12/12 12:13:19;;;;;;;2.63;2.30;;;11.00;48.40;;;;;;4971710;28;20513;-50
2021/12/12 12:15:59;;;;;;;1.80;1.60;;;11.20;48.00;;;;;;4952066;28;20443;-49
2021/12/12 12:18:33;;;;;;;2.10;2.00;;;11.30;48.20;;;;;;4965696;28;20479;-50
2021/12/12 12:21:14;;;;;;;1.70;1.60;;;11.30;47.70;;;;;;4966157;28;20486;-49
2021/12/12 12:24:00;;;;;;;5.20;2.00;;;11.40;47.40;;;;;;4967430;28;20465;-51
2021/12/12 12:29:30;;;;;;;3.37;2.20;;;11.70;47.00;;;;;;4965536;28;20851;-52
2021/12/12 12:32:15;;;;;;;1.90;1.80;;;11.80;46.80;;;;;;4964382;28;20819;-52
2021/12/12 12:34:43;;;;;;;2.07;1.90;;;11.70;47.00;;;;;;4965356;28;20435;-50
2021/12/12 12:37:30;;;;;;;7.73;1.63;;;11.80;47.40;;;;;;4961992;28;20479;-52
2021/12/12 12:40:35;;;;;;;1.73;1.50;;;11.90;46.40;;;;;;4960468;28;20426;-50
2021/12/12 12:43:38;;;;;;;1.90;1.80;;;12.00;46.40;;;;;;4964166;28;21024;-51
2021/12/12 12:46:37;;;;;;;2.10;1.70;;;12.00;46.10;;;;;;4972319;28;20450;-52
2021/12/12 12:49:42;;;;;;;1.67;1.53;;;12.00;46.00;;;;;;4967620;28;20447;-49
2021/12/12 12:52:30;;;;;;;3.13;2.10;;;12.00;45.40;;;;;;4959091;28;20451;-49
2021/12/12 12:55:25;;;;;;;1.67;1.57;;;11.90;45.40;;;;;;4960597;28;20542;-51
2021/12/12 12:57:54;;;;;;;1.77;1.67;;;12.00;45.60;;;;;;4963068;28;20599;-50
2021/12/12 13:00:23;;;;;;;2.23;2.03;;;12.00;45.50;;;;;;4963350;28;20494;-49
2021/12/12 13:03:26;;;;;;;2.17;1.97;;;12.10;45.30;;;;;;4967253;28;20442;-48
2021/12/12 13:06:00;;;;;;;1.80;1.70;;;12.10;44.20;;;;;;4964336;28;20438;-51
2021/12/12 13:08:49;;;;;;;1.53;1.30;;;12.00;44.40;;;;;;4964144;28;20446;-52
2021/12/12 13:11:48;;;;;;;3.90;2.10;;;12.00;44.70;;;;;;4961887;28;20522;-49
2021/12/12 13:14:54;;;;;;;2.13;1.93;;;12.00;44.40;;;;;;4953832;28;20490;-50
2021/12/12 13:17:43;;;;;;;1.57;1.47;;;12.20;44.40;;;;;;4908869;29;20969;-50
2021/12/12 13:20:35;;;;;;;1.50;1.40;;;12.20;44.80;;;;;;4960673;28;20482;-53
2021/12/12 13:23:16;;;;;;;2.90;1.87;;;12.30;45.00;;;;;;4968735;28;20469;-49
2021/12/12 13:25:57;;;;;;;2.73;1.77;;;12.40;44.60;;;;;;4961966;28;20451;-50
2021/12/12 13:28:52;;;;;;;3.23;2.23;;;12.40;44.30;;;;;;4965542;28;21033;-53
2021/12/12 13:31:39;;;;;;;2.37;1.87;;;12.30;43.90;;;;;;4966987;28;20454;-50
2021/12/12 13:34:19;;;;;;;1.43;1.33;;;12.30;44.60;;;;;;4970680;28;20447;-52
2021/12/12 13:37:04;;;;;;;1.70;1.50;;;12.40;44.50;;;;;;4956337;28;20467;-51
2021/12/12 13:39:47;;;;;;;1.77;1.67;;;12.30;44.10;;;;;;4967094;28;20450;-50
2021/12/12 13:42:13;;;;;;;1.80;1.70;;;12.40;44.40;;;;;;4966426;28;20586;-52
2021/12/12 13:44:44;;;;;;;2.10;1.90;;;12.20;44.40;;;;;;4957577;28;20534;-52
2021/12/12 13:47:19;;;;;;;1.97;1.77;;;12.20;44.20;;;;;;4960090;28;20335;-53
2021/12/12 13:50:12;;;;;;;3.00;1.90;;;12.20;44.10;;;;;;4968814;28;20488;-51